Time;durP1;ratioP1;P1;durP2;ratioP2;P2;SDS_P1;SDS_P2;PMS_P1;PMS_P2;Temp;Humidity;BMP_temperature;BMP_pressure;BME280_temperature;BME280_humidity;BME280_pressure;Samples;Min_cycle;Max_cycle;Signal;HPM_P1;HPM_P2
2021/01/21 00:00:48;;;;;;;4.18;2.50;;;4.90;79.70;;;;;;6373641;27;20129;-78
2021/01/21 00:03:48;;;;;;;3.00;2.28;;;4.90;78.30;;;;;;6373175;27;20376;-78
2021/01/21 00:06:49;;;;;;;3.15;2.30;;;4.90;80.00;;;;;;6373541;27;20019;-78
2021/01/21 00:09:49;;;;;;;4.22;2.50;;;5.00;78.50;;;;;;6373131;27;20015;-78
2021/01/21 00:12:51;;;;;;;3.75;2.80;;;4.50;79.00;;;;;;6373432;27;20038;-79
2021/01/21 00:15:52;;;;;;;3.70;2.50;;;5.30;78.40;;;;;;6373219;27;20024;-77
2021/01/21 00:18:52;;;;;;;3.50;2.35;;;5.10;77.90;;;;;;6373072;27;20026;-79
2021/01/21 00:21:53;;;;;;;2.20;2.00;;;5.40;77.90;;;;;;6373146;27;20023;-77
2021/01/21 00:24:53;;;;;;;2.35;1.90;;;5.50;75.10;;;;;;6372949;27;20030;-77
2021/01/21 00:27:54;;;;;;;3.97;2.38;;;5.60;76.20;;;;;;6373145;27;20023;-78
2021/01/21 00:30:55;;;;;;;4.95;2.65;;;5.50;96.20;;;;;;6372906;27;20472;-78
2021/01/21 00:33:55;;;;;;;4.60;2.28;;;5.50;72.30;;;;;;6372709;27;20422;-79
2021/01/21 00:36:56;;;;;;;2.20;2.00;;;5.80;74.80;;;;;;6372832;28;20026;-78
2021/01/21 00:39:56;;;;;;;2.58;2.10;;;6.10;73.30;;;;;;6372648;28;20015;-78
2021/01/21 00:42:57;;;;;;;2.60;2.25;;;6.30;73.70;;;;;;6372633;27;20440;-80
2021/01/21 00:45:58;;;;;;;4.70;2.38;;;;;;;;;;6354538;28;20080;-77
2021/01/21 00:48:58;;;;;;;2.78;2.20;;;5.90;82.80;;;;;;6376104;27;20028;-79
2021/01/21 00:51:59;;;;;;;4.05;2.08;;;5.70;71.20;;;;;;6378005;27;20055;-78
2021/01/21 00:55:00;;;;;;;2.15;1.80;;;6.20;67.90;;;;;;6377836;27;20042;-78
2021/01/21 00:58:00;;;;;;;3.28;2.15;;;6.40;69.90;;;;;;6377774;27;20019;-78
2021/01/21 01:01:01;;;;;;;2.75;2.15;;;6.00;67.40;;;;;;6377664;27;20449;-79
2021/01/21 01:04:01;;;;;;;2.42;1.98;;;6.20;67.70;;;;;;6359560;27;20041;-78
2021/01/21 01:07:02;;;;;;;2.80;2.13;;;5.80;95.00;;;;;;6377600;27;20034;-78
2021/01/21 01:10:03;;;;;;;3.53;2.47;;;5.70;69.70;;;;;;6377297;27;20019;-78
2021/01/21 01:13:04;;;;;;;2.70;2.03;;;5.80;69.10;;;;;;6377252;27;20042;-79
2021/01/21 01:16:05;;;;;;;4.43;1.95;;;5.80;68.20;;;;;;6377371;27;20037;-78
2021/01/21 01:19:05;;;;;;;3.13;1.70;;;6.30;65.00;;;;;;6377268;27;20019;-79
2021/01/21 01:22:06;;;;;;;3.28;1.90;;;8.60;84.00;;;;;;6377236;27;20020;-78
2021/01/21 01:25:07;;;;;;;3.63;2.10;;;8.40;66.70;;;;;;6377331;27;20513;-79
2021/01/21 01:28:08;;;;;;;2.30;2.10;;;9.40;50.60;;;;;;6377086;27;20395;-78
2021/01/21 01:31:08;;;;;;;4.70;2.33;;;9.80;49.10;;;;;;6377032;27;20045;-79
2021/01/21 01:34:09;;;;;;;3.05;2.20;;;9.40;54.30;;;;;;6376853;27;20053;-80
2021/01/21 01:37:10;;;;;;;3.35;2.20;;;9.00;54.20;;;;;;6377028;27;20019;-78
2021/01/21 01:40:11;;;;;;;2.20;1.90;;;8.60;54.30;;;;;;6376732;27;20062;-79
2021/01/21 01:43:12;;;;;;;4.50;2.20;;;9.00;50.50;;;;;;6376864;27;20055;-78
2021/01/21 01:46:12;;;;;;;2.10;1.90;;;9.00;54.10;;;;;;6376994;27;20027;-77
2021/01/21 01:49:13;;;;;;;3.97;2.22;;;9.10;51.80;;;;;;6341575;27;20376;-79
2021/01/21 01:52:14;;;;;;;3.17;2.05;;;9.50;49.60;;;;;;6358041;27;20019;-78
2021/01/21 01:55:17;;;;;;;2.63;2.17;;;9.60;49.30;;;;;;6341121;27;20078;-78
2021/01/21 01:58:18;;;;;;;3.67;2.20;;;9.90;76.60;;;;;;6376136;27;20034;-79
2021/01/21 02:01:19;;;;;;;3.63;2.10;;;10.00;48.30;;;;;;6376248;27;20098;-78
2021/01/21 02:04:20;;;;;;;2.83;2.28;;;10.20;47.30;;;;;;6375953;27;20047;-78
2021/01/21 02:07:20;;;;;;;2.08;1.85;;;10.20;47.80;;;;;;6357833;27;20030;-78
2021/01/21 02:10:21;;;;;;;4.22;2.40;;;10.10;48.50;;;;;;6376040;27;20106;-78
2021/01/21 02:13:34;;;;;;;2.92;1.90;;;9.80;50.70;;;;;;6375839;27;20038;-78
2021/01/21 02:16:46;;;;;;;2.55;2.03;;;9.30;61.00;;;;;;6376078;27;20047;-80
2021/01/21 02:20:10;;;;;;;3.72;2.17;;;8.80;55.30;;;;;;6357418;27;20027;-77
2021/01/21 02:23:31;;;;;;;2.63;2.13;;;8.30;58.00;;;;;;6375863;27;20027;-79
2021/01/21 02:26:36;;;;;;;2.50;2.08;;;8.00;58.60;;;;;;6375678;27;20023;-79
2021/01/21 02:29:37;;;;;;;3.78;2.13;;;7.60;60.30;;;;;;6357902;27;20023;-80
2021/01/21 02:33:24;;;;;;;3.33;2.20;;;7.40;61.90;;;;;;6357160;27;20023;-80
2021/01/21 02:36:30;;;;;;;3.10;2.20;;;7.30;61.30;;;;;;6337909;27;20035;-78
2021/01/21 02:39:31;;;;;;;3.35;2.78;;;7.30;91.10;;;;;;6357403;27;20012;-78
2021/01/21 02:42:43;;;;;;;4.97;2.45;;;7.00;62.80;;;;;;6339987;27;20031;-79
2021/01/21 02:45:43;;;;;;;2.55;2.30;;;7.10;61.40;;;;;;6375213;27;20011;-78
2021/01/21 02:48:44;;;;;;;3.85;2.30;;;7.40;60.20;;;;;;6375199;27;20030;-80
2021/01/21 02:51:51;;;;;;;8.35;4.63;;;7.40;61.30;;;;;;6356683;27;20072;-79
2021/01/21 02:54:52;;;;;;;3.75;2.10;;;7.20;90.30;;;;;;6375010;27;20038;-78
2021/01/21 02:58:16;;;;;;;3.50;2.40;;;7.20;61.10;;;;;;6374872;27;20436;-78
2021/01/21 03:01:17;;;;;;;2.28;2.08;;;7.00;62.10;;;;;;6357485;27;20368;-79
2021/01/21 03:04:18;;;;;;;3.05;2.22;;;6.80;63.50;;;;;;6374689;27;20051;-79
2021/01/21 03:07:18;;;;;;;3.88;2.25;;;6.70;65.40;;;;;;6339331;27;20015;-78
2021/01/21 03:10:20;;;;;;;6.35;2.20;;;6.90;78.30;;;;;;6338595;27;20047;-78
2021/01/21 03:13:21;;;;;;;2.73;1.80;;;6.90;61.20;;;;;;6374544;27;20031;-78
2021/01/21 03:16:21;;;;;;;5.13;2.53;;;7.20;61.70;;;;;;6374418;27;20031;-81
2021/01/21 03:19:22;;;;;;;2.15;1.98;;;7.20;62.60;;;;;;6374436;27;20027;-78
2021/01/21 03:22:22;;;;;;;2.40;1.95;;;7.30;59.00;;;;;;6374296;27;20019;-78
2021/01/21 03:25:23;;;;;;;6.85;2.33;;;7.40;80.40;;;;;;6356475;27;20460;-78
2021/01/21 03:28:24;;;;;;;3.25;2.15;;;7.40;74.60;;;;;;6374199;27;20026;-78
2021/01/21 03:31:24;;;;;;;3.30;2.50;;;7.20;62.40;;;;;;6374331;27;20455;-79
2021/01/21 03:34:25;;;;;;;3.17;2.20;;;7.20;63.10;;;;;;6373979;27;20069;-78
2021/01/21 03:37:25;;;;;;;3.55;2.45;;;7.00;65.30;;;;;;6374088;27;20444;-78
2021/01/21 03:40:26;;;;;;;4.00;2.35;;;6.70;64.70;;;;;;6373838;27;20019;-78
2021/01/21 03:43:26;;;;;;;3.97;2.42;;;6.50;66.80;;;;;;6373826;27;20026;-78
2021/01/21 03:46:27;;;;;;;3.88;2.47;;;6.30;93.70;;;;;;6373835;27;20023;-79
2021/01/21 03:49:27;;;;;;;2.58;2.10;;;6.60;67.10;;;;;;6373672;27;20098;-78
2021/01/21 03:52:28;;;;;;;2.30;2.10;;;7.00;65.40;;;;;;6373670;27;20027;-78
2021/01/21 03:55:29;;;;;;;2.50;2.30;;;7.00;65.30;;;;;;6355231;27;20103;-79
2021/01/21 03:58:29;;;;;;;3.53;2.00;;;6.90;66.70;;;;;;6373706;27;20450;-78
2021/01/21 04:01:30;;;;;;;2.53;2.33;;;6.60;93.60;;;;;;6373737;27;20054;-78
2021/01/21 04:04:30;;;;;;;7.15;3.00;;;6.60;81.10;;;;;;6373605;27;20039;-78
2021/01/21 04:07:31;;;;;;;5.95;2.80;;;7.00;67.30;;;;;;6373415;27;20094;-78
2021/01/21 04:10:31;;;;;;;4.63;2.85;;;6.60;65.90;;;;;;6373145;27;20419;-78
2021/01/21 04:13:32;;;;;;;4.45;3.40;;;6.60;65.90;;;;;;6373137;27;20027;-78
2021/01/21 04:16:33;;;;;;;3.45;2.60;;;6.90;63.00;;;;;;6373172;27;20019;-79
2021/01/21 04:19:33;;;;;;;4.07;2.25;;;7.10;63.60;;;;;;6373062;27;20123;-78
2021/01/21 04:22:34;;;;;;;3.40;2.10;;;7.60;57.50;;;;;;6372020;27;20018;-79
2021/01/21 04:25:34;;;;;;;2.92;2.05;;;8.30;53.20;;;;;;6373016;27;20373;-78
2021/01/21 04:28:35;;;;;;;2.15;1.92;;;8.80;52.00;;;;;;6372840;27;20034;-79
2021/01/21 04:31:36;;;;;;;2.75;2.17;;;9.40;50.50;;;;;;6373148;27;20019;-81
2021/01/21 04:34:36;;;;;;;3.40;2.25;;;9.80;49.20;;;;;;6372782;27;20123;-78
2021/01/21 04:37:37;;;;;;;3.92;2.65;;;10.30;77.40;;;;;;6372746;28;20034;-80
2021/01/21 04:40:38;;;;;;;2.83;2.10;;;9.90;48.10;;;;;;6372877;27;20075;-80
2021/01/21 04:43:38;;;;;;;2.13;1.92;;;10.20;48.50;;;;;;6372575;28;20026;-81
2021/01/21 04:46:40;;;;;;;2.60;2.17;;;10.40;46.90;;;;;;6337480;28;20072;-78
2021/01/21 04:49:40;;;;;;;2.97;2.25;;;10.40;47.90;;;;;;6372556;27;20429;-78
2021/01/21 04:52:43;;;;;;;1.90;1.70;;;10.30;47.80;;;;;;6372546;28;20075;-78
2021/01/21 04:55:45;;;;;;;2.90;2.30;;;10.50;60.40;;;;;;6337619;28;20028;-79
2021/01/21 04:58:50;;;;;;;2.65;2.40;;;10.40;48.00;;;;;;6337743;28;20016;-79
2021/01/21 05:01:51;;;;;;;3.42;2.05;;;10.40;47.90;;;;;;6354081;28;20019;-79
2021/01/21 05:04:51;;;;;;;2.40;2.20;;;10.40;48.80;;;;;;6353878;27;20088;-79
2021/01/21 05:07:52;;;;;;;3.10;2.30;;;10.40;48.60;;;;;;6354208;28;20027;-79
2021/01/21 05:10:53;;;;;;;2.83;2.10;;;10.40;49.30;;;;;;6354021;27;20026;-80
2021/01/21 05:13:55;;;;;;;2.25;2.00;;;10.50;49.00;;;;;;6372523;28;20038;-79
2021/01/21 05:16:55;;;;;;;2.80;1.80;;;10.40;49.70;;;;;;6372348;28;20084;-79
2021/01/21 05:19:56;;;;;;;2.45;2.03;;;10.30;50.60;;;;;;6372451;28;20036;-79
2021/01/21 05:22:58;;;;;;;2.20;1.67;;;10.40;51.10;;;;;;6372214;27;20059;-79
2021/01/21 05:25:59;;;;;;;4.22;2.03;;;10.40;50.90;;;;;;6372290;28;20103;-81
2021/01/21 05:29:00;;;;;;;4.25;2.25;;;10.50;79.80;;;;;;6372150;27;20023;-79
2021/01/21 05:32:00;;;;;;;2.30;1.85;;;10.30;51.40;;;;;;6354134;28;20562;-80
2021/01/21 05:35:01;;;;;;;2.47;1.92;;;10.40;52.00;;;;;;6357120;27;20027;-79
2021/01/21 05:38:02;;;;;;;2.28;2.00;;;10.20;53.40;;;;;;6358694;27;20023;-79
2021/01/21 05:41:02;;;;;;;2.10;1.67;;;10.00;55.20;;;;;;6377110;27;20459;-79
2021/01/21 05:44:06;;;;;;;5.82;2.83;;;9.90;54.50;;;;;;6376912;27;20030;-78
2021/01/21 05:47:08;;;;;;;2.53;2.00;;;9.80;65.70;;;;;;6359227;27;20051;-79
2021/01/21 05:50:09;;;;;;;2.97;2.10;;;10.00;54.90;;;;;;6376766;27;20078;-81
2021/01/21 05:53:10;;;;;;;2.42;2.10;;;9.90;56.30;;;;;;6376849;27;20280;-81
2021/01/21 05:56:11;;;;;;;3.70;1.92;;;9.90;58.10;;;;;;6341498;27;20023;-78
2021/01/21 05:59:13;;;;;;;4.55;2.83;;;9.90;59.00;;;;;;6376582;27;20088;-79
2021/01/21 06:02:15;;;;;;;7.10;3.43;;;9.80;58.50;;;;;;6358317;27;20023;-79
2021/01/21 06:05:22;;;;;;;1.75;1.65;;;9.70;59.20;;;;;;6376477;27;20120;-79
2021/01/21 06:08:22;;;;;;;2.60;2.00;;;9.80;59.90;;;;;;6376625;27;20105;-79
2021/01/21 06:11:23;;;;;;;3.53;2.10;;;9.70;59.70;;;;;;6376114;27;20023;-81
2021/01/21 06:14:24;;;;;;;2.70;1.80;;;9.80;60.50;;;;;;6376118;27;20046;-78
2021/01/21 06:17:28;;;;;;;2.00;1.80;;;9.70;60.50;;;;;;6376059;27;20023;-78
2021/01/21 06:20:28;;;;;;;2.28;1.88;;;9.70;60.50;;;;;;6376080;27;20023;-78
2021/01/21 06:23:32;;;;;;;2.03;1.80;;;9.70;60.60;;;;;;6375991;27;20026;-78
2021/01/21 06:26:50;;;;;;;5.25;4.07;;;9.70;60.60;;;;;;6375940;27;20675;-81
2021/01/21 06:29:52;;;;;;;3.22;2.05;;;9.80;60.50;;;;;;6357538;27;20015;-78
2021/01/21 06:33:00;;;;;;;3.08;2.78;;;9.70;62.20;;;;;;6357440;27;20034;-79
2021/01/21 06:36:04;;;;;;;2.60;1.65;;;9.60;61.40;;;;;;6375591;27;20448;-79
2021/01/21 06:39:05;;;;;;;4.28;1.98;;;9.70;61.30;;;;;;6357296;27;20044;-80
2021/01/21 06:42:06;;;;;;;2.85;1.70;;;9.80;61.30;;;;;;6323113;27;20027;-79
2021/01/21 06:45:07;;;;;;;1.55;1.40;;;10.00;60.90;;;;;;6339527;27;20107;-79
2021/01/21 06:48:10;;;;;;;1.17;1.13;;;10.10;60.70;;;;;;6357130;27;20023;-79
2021/01/21 06:51:10;;;;;;;1.95;1.60;;;10.20;60.30;;;;;;6357404;27;20023;-79
2021/01/21 06:54:11;;;;;;;2.15;1.77;;;10.30;60.00;;;;;;6356833;27;20042;-79
2021/01/21 06:57:34;;;;;;;2.03;1.90;;;10.30;60.80;;;;;;6356819;27;20023;-79
2021/01/21 07:00:34;;;;;;;2.88;2.10;;;10.30;61.70;;;;;;6375151;27;20023;-79
2021/01/21 07:03:35;;;;;;;1.58;1.40;;;10.20;62.10;;;;;;6375067;27;20441;-79
2021/01/21 07:06:54;;;;;;;1.80;1.67;;;10.20;61.50;;;;;;6339493;27;20396;-78
2021/01/21 07:09:55;;;;;;;2.38;1.88;;;10.20;62.80;;;;;;6374984;27;20111;-79
2021/01/21 07:12:56;;;;;;;1.67;1.40;;;10.10;62.30;;;;;;6339809;27;20029;-78
2021/01/21 07:16:06;;;;;;;2.13;1.80;;;10.30;62.30;;;;;;6374592;27;20050;-79
2021/01/21 07:19:08;;;;;;;1.63;1.50;;;10.30;62.30;;;;;;6374730;27;20019;-78
2021/01/21 07:22:20;;;;;;;2.03;1.67;;;10.30;62.50;;;;;;6356337;27;20114;-79
2021/01/21 07:25:21;;;;;;;3.22;1.90;;;10.10;63.10;;;;;;6374576;27;20023;-82
2021/01/21 07:28:21;;;;;;;5.78;3.72;;;9.90;64.10;;;;;;6338946;27;20079;-79
2021/01/21 07:31:22;;;;;;;2.10;1.90;;;9.90;63.80;;;;;;6356111;27;20019;-78
2021/01/21 07:34:23;;;;;;;1.40;1.30;;;9.90;64.50;;;;;;6355925;27;20039;-79
2021/01/21 07:37:28;;;;;;;1.60;1.50;;;10.00;63.90;;;;;;6374404;27;20019;-79
2021/01/21 07:40:45;;;;;;;1.70;1.60;;;10.00;63.40;;;;;;6374058;27;20023;-78
2021/01/21 07:43:57;;;;;;;2.78;1.63;;;10.10;63.40;;;;;;6374097;27;20038;-79
2021/01/21 07:47:18;;;;;;;;;;;10.00;64.10;;;;;;6374307;27;20102;-79
2021/01/21 07:53:21;;;;;;;6.85;4.45;;;9.80;64.80;;;;;;6373677;27;20038;-79
2021/01/21 07:56:21;;;;;;;4.25;2.47;;;9.80;65.80;;;;;;6355383;27;20373;-79
2021/01/21 07:59:22;;;;;;;1.75;1.40;;;9.80;64.90;;;;;;6338338;27;20062;-78
2021/01/21 08:02:23;;;;;;;1.67;1.58;;;10.00;63.80;;;;;;6373804;27;20019;-78
2021/01/21 08:05:23;;;;;;;2.70;1.65;;;10.10;63.60;;;;;;6373267;27;20763;-81
2021/01/21 08:08:24;;;;;;;1.67;1.55;;;10.20;89.40;;;;;;6373652;27;20023;-80
2021/01/21 08:11:25;;;;;;;1.65;1.55;;;10.30;63.00;;;;;;6373462;27;20027;-81
2021/01/21 08:14:25;;;;;;;1.67;1.58;;;10.40;63.40;;;;;;6337950;27;20077;-78
2021/01/21 08:17:26;;;;;;;1.60;1.50;;;10.50;62.90;;;;;;6338285;27;20039;-79
2021/01/21 08:20:29;;;;;;;1.98;1.42;;;10.50;63.60;;;;;;6373238;27;20023;-79
2021/01/21 08:23:30;;;;;;;1.60;1.50;;;10.50;63.30;;;;;;6373208;27;20126;-81
2021/01/21 08:26:31;;;;;;;3.60;2.08;;;10.70;74.80;;;;;;6373091;27;20015;-79
2021/01/21 08:29:31;;;;;;;4.40;1.55;;;10.50;63.70;;;;;;6355011;27;20031;-79
2021/01/21 08:32:32;;;;;;;4.90;1.63;;;10.60;62.40;;;;;;6354771;27;20023;-79
2021/01/21 08:35:35;;;;;;;3.67;3.38;;;10.70;63.10;;;;;;6354675;28;20118;-79
2021/01/21 08:38:42;;;;;;;3.78;2.50;;;10.70;62.30;;;;;;6354814;28;20019;-80
2021/01/21 08:41:43;;;;;;;2.28;2.08;;;10.80;62.50;;;;;;6355751;28;20027;-79
2021/01/21 08:44:43;;;;;;;9.13;7.57;;;10.80;62.50;;;;;;6372828;28;20501;-79
2021/01/21 08:47:46;;;;;;;4.45;2.20;;;10.90;62.20;;;;;;6337602;28;20034;-79
2021/01/21 08:50:46;;;;;;;6.75;4.88;;;11.00;61.50;;;;;;6372942;28;20027;-79
2021/01/21 08:53:47;;;;;;;2.20;1.63;;;11.00;61.40;;;;;;6372682;28;20176;-78
2021/01/21 08:57:07;;;;;;;3.92;2.92;;;11.10;61.00;;;;;;6354583;28;20030;-79
2021/01/21 09:00:12;;;;;;;3.28;2.30;;;11.10;60.90;;;;;;6373054;28;20062;-79
2021/01/21 09:03:13;;;;;;;5.82;3.63;;;11.30;60.20;;;;;;6372803;27;20031;-79
2021/01/21 09:06:14;;;;;;;2.80;2.50;;;11.30;60.80;;;;;;6337349;28;20051;-79
2021/01/21 09:09:15;;;;;;;3.83;2.95;;;11.30;60.30;;;;;;6374617;27;20023;-78
2021/01/21 09:12:20;;;;;;;2.50;1.70;;;11.40;59.90;;;;;;6342389;27;20106;-78
2021/01/21 09:15:20;;;;;;;1.75;1.65;;;11.90;59.50;;;;;;6377691;27;20103;-79
2021/01/21 09:18:22;;;;;;;1.73;1.63;;;12.80;56.80;;;;;;6377685;27;20019;-78
2021/01/21 09:21:23;;;;;;;3.10;2.10;;;13.40;54.60;;;;;;6377690;27;20026;-78
2021/01/21 09:24:23;;;;;;;4.47;1.88;;;13.70;54.60;;;;;;6377284;27;20457;-78
2021/01/21 09:27:24;;;;;;;5.40;3.65;;;13.90;53.90;;;;;;6359311;27;20027;-81
2021/01/21 09:30:25;;;;;;;3.95;2.63;;;13.50;53.30;;;;;;6377387;27;20026;-81
2021/01/21 09:33:26;;;;;;;2.10;1.90;;;13.50;62.70;;;;;;6376949;27;20365;-79
2021/01/21 09:36:28;;;;;;;4.03;2.30;;;13.70;54.00;;;;;;6377326;27;20102;-80
2021/01/21 09:39:29;;;;;;;2.23;1.50;;;13.80;53.20;;;;;;6377042;27;20102;-78
2021/01/21 09:42:29;;;;;;;1.60;1.50;;;13.60;54.60;;;;;;6377056;27;20256;-79
2021/01/21 09:45:31;;;;;;;1.88;1.50;;;13.50;53.60;;;;;;6376958;27;20023;-79
2021/01/21 09:48:31;;;;;;;2.30;2.15;;;13.20;54.30;;;;;;6377098;27;20023;-81
2021/01/21 09:51:32;;;;;;;1.08;1.00;;;12.90;56.20;;;;;;6376666;27;20102;-81
2021/01/21 09:54:32;;;;;;;2.28;1.73;;;12.60;56.60;;;;;;6376627;27;20035;-79
2021/01/21 09:57:33;;;;;;;2.17;1.35;;;12.50;58.50;;;;;;6358401;27;20038;-78
2021/01/21 10:00:34;;;;;;;1.35;1.27;;;12.50;57.60;;;;;;6376463;27;20019;-78
2021/01/21 10:03:34;;;;;;;1.60;1.50;;;13.10;58.50;;;;;;6376596;27;20061;-80
2021/01/21 10:06:35;;;;;;;2.22;2.03;;;13.00;56.70;;;;;;6376208;27;20047;-79
2021/01/21 10:09:36;;;;;;;1.10;1.10;;;13.10;56.50;;;;;;6376463;27;20446;-76
2021/01/21 10:12:36;;;;;;;3.05;2.00;;;13.00;57.60;;;;;;6376164;27;20035;-77
2021/01/21 10:15:37;;;;;;;2.67;1.80;;;13.00;57.20;;;;;;6376362;27;20088;-77
2021/01/21 10:18:37;;;;;;;2.72;1.75;;;13.00;57.30;;;;;;6376042;27;20019;-79
2021/01/21 10:21:38;;;;;;;1.10;1.10;;;13.10;55.90;;;;;;6357832;27;20027;-79
2021/01/21 10:24:39;;;;;;;1.58;1.48;;;13.00;57.80;;;;;;6376047;27;20461;-79
2021/01/21 10:27:40;;;;;;;1.40;1.30;;;13.00;58.80;;;;;;6357680;27;20076;-79
2021/01/21 10:30:40;;;;;;;1.20;1.20;;;13.20;56.10;;;;;;6357584;27;20382;-79
2021/01/21 10:33:43;;;;;;;1.60;1.50;;;13.20;58.30;;;;;;6375635;27;20027;-79
2021/01/21 10:36:43;;;;;;;1.50;1.40;;;14.40;54.90;;;;;;6357444;27;20024;-76
2021/01/21 10:39:44;;;;;;;1.70;1.55;;;15.40;53.20;;;;;;6375586;27;20373;-78
2021/01/21 10:42:44;;;;;;;2.42;2.10;;;16.20;51.10;;;;;;6375597;27;20088;-79
2021/01/21 10:45:45;;;;;;;1.50;1.40;;;16.90;48.60;;;;;;6375412;27;20098;-77
2021/01/21 10:48:46;;;;;;;4.38;1.83;;;17.30;48.20;;;;;;6357455;27;20019;-78
2021/01/21 10:51:46;;;;;;;1.23;1.20;;;17.10;47.50;;;;;;6375541;27;20023;-77
2021/01/21 10:54:47;;;;;;;2.33;2.10;;;16.40;50.00;;;;;;6375439;27;20159;-78
2021/01/21 10:57:48;;;;;;;1.50;1.40;;;16.00;49.20;;;;;;6375353;27;20460;-79
2021/01/21 11:00:49;;;;;;;1.88;1.77;;;15.20;56.70;;;;;;6356606;27;20023;-80
2021/01/21 11:03:49;;;;;;;2.85;2.55;;;14.60;53.30;;;;;;6375019;27;20027;-79
2021/01/21 11:06:50;;;;;;;2.38;2.17;;;14.40;53.60;;;;;;6374901;27;20019;-79
2021/01/21 11:09:51;;;;;;;3.00;2.67;;;14.40;54.20;;;;;;6374874;27;20015;-79
2021/01/21 11:12:51;;;;;;;1.75;1.65;;;14.20;54.40;;;;;;6374592;27;20027;-78
2021/01/21 11:15:52;;;;;;;2.05;1.95;;;14.20;54.60;;;;;;6374734;27;20031;-76
2021/01/21 11:18:53;;;;;;;1.85;1.27;;;14.30;53.60;;;;;;6356254;27;20449;-80
2021/01/21 11:21:53;;;;;;;1.42;1.33;;;14.50;53.80;;;;;;6374538;27;20047;-76
2021/01/21 11:24:54;;;;;;;3.47;2.97;;;14.60;52.60;;;;;;6374697;27;20054;-77
2021/01/21 11:27:54;;;;;;;2.80;2.40;;;14.40;53.80;;;;;;6356077;27;20106;-81
2021/01/21 11:30:55;;;;;;;6.28;2.40;;;14.00;55.20;;;;;;6374199;27;20031;-80
2021/01/21 11:33:56;;;;;;;3.33;2.70;;;13.60;57.30;;;;;;6373923;27;20035;-80
2021/01/21 11:36:57;;;;;;;1.50;1.40;;;13.30;57.60;;;;;;6374166;27;20015;-80
2021/01/21 11:39:57;;;;;;;5.25;4.75;;;13.20;57.40;;;;;;6355798;27;20023;-77
2021/01/21 11:42:58;;;;;;;1.67;1.58;;;13.20;58.00;;;;;;6374382;27;20029;-77
2021/01/21 11:45:58;;;;;;;2.45;2.25;;;13.20;58.30;;;;;;6374043;27;20011;-80
2021/01/21 11:48:59;;;;;;;2.30;2.10;;;13.00;58.60;;;;;;6355526;27;20025;-80
2021/01/21 11:52:00;;;;;;;2.28;2.08;;;12.80;59.50;;;;;;6373964;27;20449;-78
2021/01/21 11:55:00;;;;;;;2.10;1.75;;;12.60;62.00;;;;;;6373590;27;20039;-77
2021/01/21 11:58:01;;;;;;;2.08;1.98;;;12.50;61.70;;;;;;6355463;27;20443;-77
2021/01/21 12:01:02;;;;;;;2.30;2.10;;;12.30;63.80;;;;;;6373646;27;20027;-79
2021/01/21 12:04:02;;;;;;;3.10;2.63;;;12.20;63.10;;;;;;6373442;27;20061;-77
2021/01/21 12:07:03;;;;;;;2.47;2.22;;;12.00;64.90;;;;;;6373843;27;20094;-77
2021/01/21 12:10:05;;;;;;;2.75;2.55;;;11.90;64.30;;;;;;6373620;27;20107;-79
2021/01/21 12:13:05;;;;;;;4.65;2.17;;;11.90;64.60;;;;;;6373394;27;20501;-78
2021/01/21 12:16:06;;;;;;;3.25;2.10;;;11.90;64.70;;;;;;6373537;27;20038;-78
2021/01/21 12:19:07;;;;;;;6.88;5.95;;;11.90;64.20;;;;;;6373343;27;20081;-77
2021/01/21 12:22:08;;;;;;;4.60;3.72;;;11.90;63.90;;;;;;6373188;27;20067;-81
2021/01/21 12:25:09;;;;;;;4.28;3.88;;;11.30;91.00;;;;;;6373357;27;20019;-77
2021/01/21 12:28:10;;;;;;;2.92;2.53;;;11.50;75.40;;;;;;6373156;27;20080;-75
2021/01/21 12:31:12;;;;;;;6.70;4.57;;;11.40;71.40;;;;;;6373437;27;20023;-77
2021/01/21 12:34:13;;;;;;;4.10;1.70;;;11.30;71.60;;;;;;6373131;27;20454;-77
2021/01/21 12:37:13;;;;;;;3.47;2.70;;;11.10;72.00;;;;;;6373081;27;20056;-77
2021/01/21 12:40:14;;;;;;;2.63;1.70;;;10.90;73.50;;;;;;6373090;28;20023;-77
2021/01/21 12:43:15;;;;;;;6.90;2.50;;;10.90;72.90;;;;;;6372286;27;20019;-77
2021/01/21 12:46:16;;;;;;;2.53;1.90;;;10.90;74.00;;;;;;6373113;28;20423;-77
2021/01/21 12:49:16;;;;;;;2.63;1.77;;;10.90;73.60;;;;;;6372862;28;20077;-77
2021/01/21 12:52:17;;;;;;;6.80;5.38;;;11.00;73.80;;;;;;6354637;28;20021;-80
2021/01/21 12:55:18;;;;;;;7.35;3.28;;;11.00;74.40;;;;;;6354294;28;20035;-77
2021/01/21 12:58:18;;;;;;;7.82;5.30;;;11.00;75.30;;;;;;6372916;27;20034;-78
2021/01/21 13:01:19;;;;;;;4.40;3.30;;;10.90;75.20;;;;;;6372618;27;20016;-79
2021/01/21 13:04:20;;;;;;;19.52;11.05;;;10.80;76.70;;;;;;6372795;28;20047;-78
2021/01/21 13:07:20;;;;;;;8.45;7.07;;;10.80;75.90;;;;;;6372571;27;20402;-77
2021/01/21 13:10:21;;;;;;;9.27;7.93;;;10.50;76.80;;;;;;6372812;28;20031;-78
2021/01/21 13:13:23;;;;;;;6.35;3.42;;;10.40;79.80;;;;;;6372540;27;20035;-77
2021/01/21 13:16:24;;;;;;;3.78;2.60;;;10.40;78.30;;;;;;6354658;28;20048;-77
2021/01/21 13:19:25;;;;;;;3.28;2.28;;;10.30;86.60;;;;;;6372546;27;20369;-77
2021/01/21 13:22:26;;;;;;;6.05;3.83;;;10.30;79.80;;;;;;6372476;28;20026;-77
2021/01/21 13:25:26;;;;;;;6.70;4.22;;;10.20;80.00;;;;;;6372705;28;20034;-76
2021/01/21 13:28:27;;;;;;;3.88;2.70;;;10.20;80.10;;;;;;6372459;27;20094;-77
2021/01/21 13:31:28;;;;;;;6.82;3.95;;;10.30;78.90;;;;;;6372470;28;20019;-78
2021/01/21 13:34:28;;;;;;;4.22;2.22;;;10.30;80.20;;;;;;6353985;28;20028;-79
2021/01/21 13:37:29;;;;;;;9.32;6.70;;;10.40;78.40;;;;;;6372528;27;20364;-80
2021/01/21 13:40:29;;;;;;;3.30;2.67;;;10.50;76.70;;;;;;6372279;28;20015;-77
2021/01/21 13:43:30;;;;;;;4.20;2.97;;;10.70;75.20;;;;;;6372562;27;20031;-77
2021/01/21 13:46:31;;;;;;;3.95;2.47;;;10.70;75.40;;;;;;6372394;27;20117;-78
2021/01/21 13:49:35;;;;;;;4.80;4.25;;;10.70;75.10;;;;;;6372127;28;20050;-76
2021/01/21 13:52:35;;;;;;;5.95;5.20;;;10.10;95.60;;;;;;6372671;28;20385;-77
2021/01/21 13:55:36;;;;;;;7.28;4.85;;;10.20;85.60;;;;;;6374201;27;20043;-77
2021/01/21 13:58:36;;;;;;;11.02;9.68;;;10.20;78.50;;;;;;6376877;27;20023;-77
2021/01/21 14:01:38;;;;;;;4.72;4.32;;;10.40;76.80;;;;;;6376712;27;20386;-79
2021/01/21 14:04:40;;;;;;;2.92;1.75;;;10.60;74.60;;;;;;6376587;27;20039;-76
2021/01/21 14:07:40;;;;;;;3.25;2.50;;;10.90;72.60;;;;;;6357981;27;20019;-76
2021/01/21 14:10:45;;;;;;;2.22;2.00;;;11.10;71.20;;;;;;6376412;27;20042;-79
2021/01/21 14:13:45;;;;;;;2.28;2.08;;;11.20;70.30;;;;;;6376352;27;20482;-82
2021/01/21 14:16:52;;;;;;;2.72;2.30;;;11.20;70.80;;;;;;6376211;27;20019;-79
2021/01/21 14:19:52;;;;;;;2.13;1.92;;;11.30;70.30;;;;;;6376329;27;20027;-78
2021/01/21 14:22:53;;;;;;;4.55;3.42;;;11.30;69.30;;;;;;6375931;27;20517;-77
2021/01/21 14:25:53;;;;;;;6.32;4.75;;;11.30;70.10;;;;;;6376084;27;20026;-77
2021/01/21 14:28:54;;;;;;;2.70;2.10;;;11.30;70.30;;;;;;6375967;27;20064;-77
2021/01/21 14:31:54;;;;;;;3.28;2.47;;;11.30;69.60;;;;;;6374964;27;20031;-78
2021/01/21 14:34:55;;;;;;;5.22;3.60;;;11.40;69.30;;;;;;6375652;27;20054;-79
2021/01/21 14:37:56;;;;;;;3.53;2.88;;;11.40;69.60;;;;;;6376141;27;20023;-77
2021/01/21 14:40:56;;;;;;;2.30;2.10;;;11.30;69.90;;;;;;6357657;27;20433;-79
2021/01/21 14:43:57;;;;;;;2.15;1.95;;;11.30;69.20;;;;;;6375502;27;20076;-80
2021/01/21 14:46:57;;;;;;;2.47;2.15;;;11.30;69.20;;;;;;6375898;27;20357;-77
2021/01/21 14:49:58;;;;;;;2.17;1.90;;;11.20;69.20;;;;;;6375444;27;20062;-78
2021/01/21 14:52:59;;;;;;;7.65;5.57;;;11.20;68.80;;;;;;6375371;27;20019;-77
2021/01/21 14:55:59;;;;;;;5.65;3.20;;;11.20;69.10;;;;;;6375198;27;20023;-82
2021/01/21 14:59:00;;;;;;;11.27;7.10;;;11.20;69.80;;;;;;6375493;27;20393;-76
2021/01/21 15:02:00;;;;;;;2.13;1.92;;;11.20;68.70;;;;;;6375086;27;20075;-77
2021/01/21 15:05:01;;;;;;;2.53;2.00;;;11.30;68.70;;;;;;6356248;27;20043;-77
2021/01/21 15:08:01;;;;;;;4.05;3.25;;;11.30;68.70;;;;;;6373916;27;20020;-77
2021/01/21 15:11:02;;;;;;;4.15;3.75;;;11.30;69.10;;;;;;6375081;27;20031;-80
2021/01/21 15:14:03;;;;;;;12.82;11.48;;;11.10;70.50;;;;;;6374684;27;20088;-82
2021/01/21 15:17:03;;;;;;;2.65;2.45;;;11.10;72.60;;;;;;6374910;27;20020;-79
2021/01/21 15:20:05;;;;;;;9.82;7.93;;;10.80;84.80;;;;;;6374706;27;20524;-76
2021/01/21 15:23:05;;;;;;;6.55;3.75;;;11.10;95.10;;;;;;6374423;27;20453;-79
2021/01/21 15:26:06;;;;;;;9.85;5.50;;;10.70;76.30;;;;;;6374840;27;20112;-79
2021/01/21 15:29:07;;;;;;;2.97;2.38;;;10.40;96.00;;;;;;6356152;27;20445;-78
2021/01/21 15:32:07;;;;;;;1.92;1.73;;;10.40;96.50;;;;;;6374301;27;20034;-77
2021/01/21 15:35:08;;;;;;;2.50;2.13;;;10.40;96.80;;;;;;6374264;27;20042;-76
2021/01/21 15:38:09;;;;;;;5.78;3.50;;;10.10;97.40;;;;;;6374312;27;20116;-79
2021/01/21 15:41:10;;;;;;;4.60;2.70;;;10.10;97.40;;;;;;6356081;27;20023;-78
2021/01/21 15:44:10;;;;;;;5.15;2.70;;;9.90;98.00;;;;;;6374363;27;20071;-77
2021/01/21 15:47:11;;;;;;;2.20;2.00;;;9.80;90.70;;;;;;6374002;27;20019;-77
2021/01/21 15:50:12;;;;;;;3.22;2.42;;;9.80;90.60;;;;;;6373949;27;20019;-77
2021/01/21 15:53:12;;;;;;;4.05;2.50;;;9.40;98.40;;;;;;6373986;27;20026;-79